LPMA

Madeira/Funchal Airport

Airport
ICAO code
LPMA
IATA Code
FNC
Summary
ICAO Region
EUR
ICAO Territory
Location

Santa Catarina, Região Autónoma da Madeira

Serving
Funchal
Elevation
192 ft
Coordinates
32° 41' 52" N , 16° 46' 28" W
KCC
Csa
Airport CFIT
Runway Visual Perspective
Airport RE
Crosswind Landings
Airport WX
Low Level Turbulence
Metar
Observation
LPMA 171030Z 01017KT 330V040 9999 SCT015 SCT030 24/13 Q1020
Station
Aeroporto Da Madeira
Date/Time
2022-08-17 10:30:00
Wind direction
10°
Wind speed
17 kts
Lowest cloud amount
scattered clouds
Temperature
24°C
Dew point
13°C
Humidity
50%
QNH
1020 hPa
Weather condition
n/a

Cristiano Ronaldo International Airport, Madeira, commonly known as Madeira Airport or Funchal Airport , is an international airport in the civil parish of Santa Cruz in the Portuguese archipelago and autonomous region of Madeira.

Climatology

Temperate mediterranean climate (Köppen climate classification Csb)

Runways

Designator Length Width Surface Rops
5/23 2777 45 ASP Yes/Yes

Airport map

Aerial View

SKYbrary Partners:

Safety knowledge contributed by: